地図

経路データ

SID SEASON NUMBER BASIN SUBBASIN NAME ISO_TIME NATURE LAT LON WMO_WIND WMO_PRES WMO_AGENCY TRACK_TYPE DIST2LAND LANDFALL IFLAG USA_AGENCY USA_ATCF_ID USA_LAT USA_LON USA_RECORD USA_STATUS USA_WIND USA_PRES USA_SSHS USA_R34_NE USA_R34_SE USA_R34_SW USA_R34_NW USA_R50_NE USA_R50_SE USA_R50_SW USA_R50_NW USA_R64_NE USA_R64_SE USA_R64_SW USA_R64_NW USA_POCI USA_ROCI USA_RMW USA_EYE TOKYO_LAT TOKYO_LON TOKYO_GRADE TOKYO_WIND TOKYO_PRES TOKYO_R50_DIR TOKYO_R50_LONG TOKYO_R50_SHORT TOKYO_R30_DIR TOKYO_R30_LONG TOKYO_R30_SHORT TOKYO_LAND CMA_LAT CMA_LON CMA_CAT CMA_WIND CMA_PRES HKO_LAT HKO_LON HKO_CAT HKO_WIND HKO_PRES NEWDELHI_LAT NEWDELHI_LON NEWDELHI_GRADE NEWDELHI_WIND NEWDELHI_PRES NEWDELHI_CI NEWDELHI_DP NEWDELHI_POCI REUNION_LAT REUNION_LON REUNION_TYPE REUNION_WIND REUNION_PRES REUNION_TNUM REUNION_CI REUNION_RMW REUNION_R34_NE REUNION_R34_SE REUNION_R34_SW REUNION_R34_NW REUNION_R50_NE REUNION_R50_SE REUNION_R50_SW REUNION_R50_NW REUNION_R64_NE REUNION_R64_SE REUNION_R64_SW REUNION_R64_NW BOM_LAT BOM_LON BOM_TYPE BOM_WIND BOM_PRES BOM_TNUM BOM_CI BOM_RMW BOM_R34_NE BOM_R34_SE BOM_R34_SW BOM_R34_NW BOM_R50_NE BOM_R50_SE BOM_R50_SW BOM_R50_NW BOM_R64_NE BOM_R64_SE BOM_R64_SW BOM_R64_NW BOM_ROCI BOM_POCI BOM_EYE BOM_POS_METHOD BOM_PRES_METHOD NADI_LAT NADI_LON NADI_CAT NADI_WIND NADI_PRES WELLINGTON_LAT WELLINGTON_LON WELLINGTON_WIND WELLINGTON_PRES DS824_LAT DS824_LON DS824_STAGE DS824_WIND DS824_PRES TD9636_LAT TD9636_LON TD9636_STAGE TD9636_WIND TD9636_PRES TD9635_LAT TD9635_LON TD9635_WIND TD9635_PRES TD9635_ROCI NEUMANN_LAT NEUMANN_LON NEUMANN_CLASS NEUMANN_WIND NEUMANN_PRES MLC_LAT MLC_LON MLC_CLASS MLC_WIND MLC_PRES USA_GUST BOM_GUST BOM_GUST_PER REUNION_GUST REUNION_GUST_PER USA_SEAHGT USA_SEARAD_NE USA_SEARAD_SE USA_SEARAD_SW USA_SEARAD_NW STORM_SPEED STORM_DIR
1884349N08083 1884 51 NI BB NOT_NAMED 1884-12-14 00:00:00 TS 7.70000 83.3000 main 165 165 _________O____ -1 7.70000 83.3000 TC 64 1 0
1884349N08083 1884 51 NI BB NOT_NAMED 1884-12-14 03:00:00 TS 7.72500 83.2733 main 165 154 _________PO___ -1 7.73750 83.2600 TC 64 7.70000 83.3000 4 1 316
1884349N08083 1884 51 NI BB NOT_NAMED 1884-12-14 06:00:00 TS 7.79063 83.2094 main 156 147 _________OP___ -1 7.80000 83.2000 TC 64 7.77658 83.2235 4 2 317
1884349N08083 1884 51 NI BB NOT_NAMED 1884-12-14 09:00:00 TS 7.87965 83.1247 main 147 139 _________PP___ -1 7.90000 83.1075 TC 64 7.85252 83.1475 4 2 315
1884349N08083 1884 51 NI BB NOT_NAMED 1884-12-14 12:00:00 TS 7.96360 83.0364 main 139 139 _________OP___ -1 8.00000 83.0000 TC 64 7.92720 83.0728 4 2 310
1884349N08083 1884 51 NI BB NOT_NAMED 1884-12-14 15:00:00 TS 8.02500 82.9462 main 129 129 _________PO___ -1 8.05000 82.8925 TC 64 8.00000 83.0000 4 2 306
1884349N08083 1884 51 NI BB NOT_NAMED 1884-12-14 18:00:00 TS 8.08546 82.8645 main 133 123 _________OP___ -1 8.10000 82.8000 TC 64 8.07093 82.9290 4 2 315
1884349N08083 1884 51 NI BB NOT_NAMED 1884-12-14 21:00:00 TS 8.16749 82.8037 main 129 119 _________PP___ -1 8.19249 82.7500 TC 64 8.14249 82.8575 4 2 324
1884349N08083 1884 51 NI BB NOT_NAMED 1884-12-15 00:00:00 TS 8.25890 82.7411 main 125 125 _________OP___ -1 8.30000 82.7000 TC 64 8.21780 82.7822 4 2 321
1884349N08083 1884 51 NI BB NOT_NAMED 1884-12-15 03:00:00 TS 8.35000 82.6537 main 129 118 _________PO___ -1 8.40000 82.6075 TC 64 8.30000 82.7000 4 3 316
1884349N08083 1884 51 NI BB NOT_NAMED 1884-12-15 06:00:00 TS 8.44844 82.5536 main 118 113 _________OP___ -1 8.50000 82.5000 TC 64 8.39688 82.6072 4 3 315
1884349N08083 1884 51 NI BB NOT_NAMED 1884-12-15 09:00:00 TS 8.55000 82.4538 main 119 110 _________PP___ -1 8.60000 82.4000 TC 64 8.50000 82.5075 4 3 316
1884349N08083 1884 51 NI BB NOT_NAMED 1884-12-15 12:00:00 TS 8.65156 82.3520 main 115 104 _________OP___ -1 8.70000 82.3000 TC 64 8.60312 82.4041 4 3 315
1884349N08083 1884 51 NI BB NOT_NAMED 1884-12-15 15:00:00 TS 8.75375 82.2500 main 108 98 _________PO___ -1 8.80750 82.2000 TC 64 8.70000 82.3000 4 3 313
1884349N08083 1884 51 NI BB NOT_NAMED 1884-12-15 18:00:00 TS 8.83702 82.1520 main 98 89 _________OP___ -1 8.90000 82.1000 TC 64 8.77405 82.2040 4 2 307
1884349N08083 1884 51 NI BB NOT_NAMED 1884-12-15 21:00:00 TS 8.89623 82.0575 main 95 86 _________PP___ -1 8.94999 82.0075 TC 64 8.84248 82.1074 4 2 301
1884349N08083 1884 51 NI BB NOT_NAMED 1884-12-16 00:00:00 TS 8.95733 81.9536 main 94 74 _________OP___ -1 9.00000 81.9000 TC 64 8.91467 82.0071 4 3 302
1884349N08083 1884 51 NI BB NOT_NAMED 1884-12-16 03:00:00 TS 9.04251 81.8250 main 74 70 _________PO___ -1 9.08501 81.7500 TC 64 9.00000 81.9000 4 3 307
1884349N08083 1884 51 NI BB NOT_NAMED 1884-12-16 06:00:00 TS 9.15734 81.6911 main 78 70 _________OP___ -1 9.20000 81.6000 TC 64 9.11469 81.7822 4 4 316
1884349N08083 1884 51 NI BB NOT_NAMED 1884-12-16 09:00:00 TS 9.29624 81.5750 main 78 69 _________PP___ -1 9.34999 81.4925 TC 64 9.24250 81.6575 4 4 321
1884349N08083 1884 51 NI BB NOT_NAMED 1884-12-16 12:00:00 TS 9.43703 81.4645 main 73 69 _________OP___ -1 9.50000 81.4000 TC 64 9.37406 81.5291 4 3 320
1884349N08083 1884 51 NI BB NOT_NAMED 1884-12-16 15:00:00 TS 9.55374 81.3537 main 73 55 _________PO___ -1 9.60749 81.3075 TC 64 9.50000 81.4000 4 3 314
1884349N08083 1884 51 NI BB NOT_NAMED 1884-12-16 18:00:00 TS 9.64748 81.2415 main 55 55 _________OP___ -1 9.70000 81.2000 TC 64 9.59496 81.2830 4 3 308
1884349N08083 1884 51 NI BB NOT_NAMED 1884-12-16 21:00:00 TS 9.73872 81.1149 main 55 55 _________PP___ -1 9.79249 81.0650 TC 64 9.68495 81.1649 4 3 306
1884349N08083 1884 51 NI BB NOT_NAMED 1884-12-17 00:00:00 TS 9.84123 80.9696 main 60 55 _________OP___ -1 9.90000 80.9000 TC 64 9.78246 81.0393 4 4 306
1884349N08083 1884 51 NI BB NOT_NAMED 1884-12-17 03:00:00 TS 9.96751 80.8000 main 62 55 _________PO___ -1 10.0350 80.7000 TC 64 9.90000 80.9000 4 4 309
1884349N08083 1884 51 NI BB NOT_NAMED 1884-12-17 06:00:00 TS 10.1227 80.6217 main 55 55 _________OP___ -1 10.2000 80.5000 TC 64 10.0453 80.7434 4 5 315
1884349N08083 1884 51 NI BB NOT_NAMED 1884-12-17 09:00:00 TS 10.3025 80.4612 main 65 43 _________PP___ -1 10.3925 80.3500 TC 64 10.2125 80.5724 4 5 319
1884349N08083 1884 51 NI BB NOT_NAMED 1884-12-17 12:00:00 TS 10.4992 80.2951 main 43 21 _________OP___ -1 10.6000 80.2000 TC 64 10.3984 80.3902 4 5 318
1884349N08083 1884 51 NI BB NOT_NAMED 1884-12-17 15:00:00 TS 10.6963 80.1037 main 21 0 _________PO___ -1 10.7925 80.0075 TC 55 10.6000 80.2000 4 5 317
1884349N08083 1884 51 NI BB NOT_NAMED 1884-12-17 18:00:00 TS 10.8938 79.9169 main 0 0 _________OP___ -1 11.0000 79.8000 TC 47 10.8141 80.0045 4 6 318
1884349N08083 1884 51 NI BB NOT_NAMED 1884-12-17 21:00:00 TS 11.1186 79.7222 main 0 0 _________PP___ -1 11.2400 79.5976 TC 38 11.0376 79.8053 4 6 320
1884349N08083 1884 51 NI BB NOT_NAMED 1884-12-18 00:00:00 TS 11.3449 79.5356 main 0 0 _________OP___ -1 11.5000 79.4000 TC 30 11.2673 79.6034 4 5 320
1884349N08083 1884 51 NI BB NOT_NAMED 1884-12-18 03:00:00 NR 11.5000 79.4000 main 0 __________O___ -1 TC 11.5000 79.4000 1 4 320

IBTrACS Databaseについて

本データベースは、米国NOAAが公開する1842年以降の世界の熱帯低気圧のベストトラックデータアーカイブInternational Best Track Archive for Climate Stewardship (IBTrACS)を、ウェブで閲覧しやすい形式に変換したものです。

最終更新日:2021-10-08